createdAt,value
2019-03-17T05:02:17.974Z,0
2019-03-17T05:05:45.826Z,0
2019-03-17T05:09:13.698Z,0
2019-03-17T05:12:50.266Z,0
2019-03-17T05:16:18.116Z,0
2019-03-17T05:19:45.990Z,0
2019-03-17T05:23:13.898Z,0
2019-03-17T05:26:41.751Z,0
2019-03-17T05:30:09.617Z,5.625
2019-03-17T05:33:37.486Z,5.625
2019-03-17T05:37:08.367Z,5.625
2019-03-17T05:40:36.218Z,11.25
2019-03-17T05:44:04.094Z,16.875
2019-03-17T05:47:31.961Z,28.125
2019-03-17T05:50:59.825Z,28.125
2019-03-17T05:54:27.691Z,28.125
2019-03-17T05:57:55.596Z,33.75
2019-03-17T06:01:23.451Z,45
2019-03-17T06:04:51.331Z,50.625
2019-03-17T06:08:19.239Z,56.25
2019-03-17T06:11:47.110Z,67.5
2019-03-17T06:15:15.010Z,67.5
2019-03-17T06:18:42.966Z,67.5
2019-03-17T06:22:11.806Z,67.5
2019-03-17T06:25:40.698Z,61.875
2019-03-17T06:29:08.562Z,61.875
2019-03-17T06:32:36.418Z,61.875
2019-03-17T06:36:04.280Z,61.875
2019-03-17T06:39:32.188Z,67.5
2019-03-17T06:43:00.616Z,78.75
2019-03-17T06:46:28.488Z,106.875
2019-03-17T06:49:56.594Z,135
2019-03-17T06:53:25.007Z,163.125
2019-03-17T06:56:53.839Z,140.625
2019-03-17T07:00:22.596Z,118.125
2019-03-17T07:03:50.505Z,123.75
2019-03-17T07:07:18.361Z,118.125
2019-03-17T07:10:46.312Z,123.75
2019-03-17T07:14:14.130Z,118.125
2019-03-17T07:17:42.010Z,123.75
2019-03-17T07:21:09.884Z,129.375
2019-03-17T07:24:38.425Z,135
2019-03-17T07:28:06.280Z,123.75
2019-03-17T07:31:35.295Z,129.375
2019-03-17T07:35:04.164Z,151.875
2019-03-17T07:38:32.070Z,151.875
2019-03-17T07:41:59.935Z,180
2019-03-17T07:45:27.936Z,163.125
2019-03-17T07:48:56.000Z,174.375
2019-03-17T07:52:23.983Z,236.25
2019-03-17T07:55:51.856Z,241.875
2019-03-17T07:59:19.751Z,196.875
2019-03-17T08:02:47.631Z,168.75
2019-03-17T08:06:16.371Z,163.125
2019-03-17T08:09:45.230Z,118.125
2019-03-17T08:13:13.092Z,213.75
2019-03-17T08:16:41.533Z,202.5
2019-03-17T08:20:09.619Z,146.25
2019-03-17T08:23:44.414Z,196.875
2019-03-17T08:27:21.779Z,337.5
2019-03-17T08:30:56.075Z,298.125
2019-03-17T08:34:23.972Z,196.875
2019-03-17T08:37:51.860Z,326.25
2019-03-17T08:41:19.747Z,270
2019-03-17T08:44:47.621Z,202.5
2019-03-17T08:48:15.499Z,174.375
2019-03-17T08:51:43.362Z,309.375
2019-03-17T08:55:11.230Z,337.5
2019-03-17T08:58:39.098Z,331.875
2019-03-17T09:02:06.948Z,320.625
2019-03-17T09:05:34.835Z,286.875
2019-03-17T09:09:03.095Z,241.875
2019-03-17T09:12:30.920Z,196.875
2019-03-17T09:15:59.820Z,219.375
2019-03-17T09:19:27.725Z,174.375
2019-03-17T09:22:55.645Z,151.875
2019-03-17T09:26:23.580Z,157.5
2019-03-17T09:29:51.493Z,253.125
2019-03-17T09:33:19.411Z,343.125
2019-03-17T09:36:47.285Z,157.5
2019-03-17T09:40:15.415Z,180
2019-03-17T09:43:44.398Z,112.5
2019-03-17T09:47:12.262Z,45
2019-03-17T09:50:40.144Z,61.875
2019-03-17T09:54:08.067Z,151.875
2019-03-17T09:57:35.877Z,129.375
2019-03-17T10:01:03.758Z,129.375
2019-03-17T10:04:31.659Z,168.75
2019-03-17T10:07:59.529Z,118.125
2019-03-17T10:11:27.415Z,208.125
2019-03-17T10:14:55.301Z,191.25
2019-03-17T10:18:24.172Z,146.25
2019-03-17T10:21:52.031Z,123.75
2019-03-17T10:25:19.896Z,129.375
2019-03-17T10:28:47.792Z,185.625
2019-03-17T10:32:15.662Z,180
2019-03-17T10:35:43.533Z,202.5
2019-03-17T10:39:14.381Z,157.5
2019-03-17T10:42:42.247Z,174.375
2019-03-17T10:46:10.131Z,219.375
2019-03-17T10:49:38.021Z,264.375
2019-03-17T10:53:05.892Z,315
2019-03-17T10:56:33.769Z,225
2019-03-17T11:00:01.651Z,264.375
2019-03-17T11:03:29.505Z,354.375
2019-03-17T11:06:57.372Z,495
2019-03-17T11:10:25.245Z,360
2019-03-17T11:13:54.122Z,405
2019-03-17T11:17:21.997Z,421.875
2019-03-17T11:20:49.878Z,309.375
2019-03-17T11:24:24.792Z,298.125
2019-03-17T11:27:52.690Z,360
2019-03-17T11:31:20.570Z,309.375
2019-03-17T11:34:48.444Z,315
2019-03-17T11:38:17.876Z,331.875
2019-03-17T11:41:46.731Z,315
2019-03-17T11:45:14.626Z,253.125
2019-03-17T11:48:42.527Z,258.75
2019-03-17T11:52:10.431Z,247.5
2019-03-17T11:55:38.329Z,247.5
2019-03-17T11:59:06.185Z,225
2019-03-17T12:02:34.049Z,225
2019-03-17T12:06:01.915Z,292.5
2019-03-17T12:09:31.795Z,213.75
2019-03-17T12:12:59.644Z,258.75
2019-03-17T12:16:27.520Z,230.625
2019-03-17T12:19:56.304Z,213.75
2019-03-17T12:23:24.172Z,202.5
2019-03-17T12:26:52.033Z,168.75
2019-03-17T12:30:19.897Z,90
2019-03-17T12:33:47.804Z,73.125
2019-03-17T12:37:15.669Z,56.25
2019-03-17T12:40:43.528Z,101.25
2019-03-17T12:44:11.394Z,146.25
2019-03-17T12:47:40.287Z,168.75
2019-03-17T12:51:08.140Z,146.25
2019-03-17T12:54:36.106Z,123.75
2019-03-17T12:58:03.977Z,90
2019-03-17T13:01:31.829Z,168.75
2019-03-17T13:04:59.723Z,163.125
2019-03-17T13:08:27.604Z,73.125
2019-03-17T13:11:55.458Z,95.625
2019-03-17T13:15:23.354Z,275.625
2019-03-17T13:18:51.220Z,331.875
2019-03-17T13:22:19.075Z,343.125
2019-03-17T13:25:46.939Z,337.5
2019-03-17T13:29:14.808Z,309.375
2019-03-17T13:32:42.692Z,483.75
2019-03-17T13:36:10.548Z,1181.25
2019-03-17T13:39:38.482Z,388.125
2019-03-17T13:43:06.344Z,950.625
2019-03-17T13:46:34.198Z,461.25
2019-03-17T13:50:02.057Z,444.375
2019-03-17T13:53:29.918Z,1254.375
2019-03-17T13:56:57.776Z,826.875
2019-03-17T14:00:25.683Z,365.625
2019-03-17T14:03:55.005Z,596.25
2019-03-17T14:07:23.400Z,540
2019-03-17T14:10:51.268Z,618.75
2019-03-17T14:14:19.132Z,405
2019-03-17T14:17:47.050Z,630
2019-03-17T14:21:14.871Z,506.25
2019-03-17T14:24:42.736Z,450
2019-03-17T14:28:11.591Z,658.125
2019-03-17T14:31:40.437Z,438.75
2019-03-17T14:35:08.308Z,399.375
2019-03-17T14:38:37.245Z,793.125
2019-03-17T14:42:05.168Z,421.875
2019-03-17T14:45:33.109Z,382.5
2019-03-17T14:49:00.979Z,337.5
2019-03-17T14:52:28.903Z,371.25
2019-03-17T14:55:56.776Z,303.75
2019-03-17T14:59:24.645Z,326.25
2019-03-17T15:02:52.517Z,438.75
2019-03-17T15:06:20.378Z,1603.125
2019-03-17T15:09:48.229Z,1344.375
2019-03-17T15:13:16.103Z,483.75
2019-03-17T15:16:43.995Z,286.875
2019-03-17T15:20:11.862Z,354.375
2019-03-17T15:23:39.735Z,270
2019-03-17T15:27:07.656Z,416.25
2019-03-17T15:30:35.524Z,343.125
2019-03-17T15:34:03.373Z,1721.25
2019-03-17T15:37:31.253Z,202.5
2019-03-17T15:40:59.137Z,1648.125
2019-03-17T15:44:27.985Z,1473.75
2019-03-17T15:47:55.869Z,219.375
2019-03-17T15:51:24.724Z,151.875
2019-03-17T15:54:53.565Z,146.25
2019-03-17T15:58:21.432Z,112.5
2019-03-17T16:01:49.299Z,95.625
2019-03-17T16:05:18.174Z,90
2019-03-17T16:08:46.064Z,78.75
2019-03-17T16:12:13.950Z,73.125
2019-03-17T16:15:43.772Z,73.125
2019-03-17T16:19:11.642Z,67.5
2019-03-17T16:22:39.515Z,56.25
2019-03-17T16:26:07.371Z,50.625
2019-03-17T16:29:35.258Z,45
2019-03-17T16:33:03.158Z,39.375
2019-03-17T16:36:30.985Z,45
2019-03-17T16:40:00.578Z,61.875
2019-03-17T16:43:28.445Z,50.625
2019-03-17T16:46:56.309Z,50.625
2019-03-17T16:50:24.187Z,45
2019-03-17T16:53:52.045Z,39.375
2019-03-17T16:57:21.018Z,33.75
2019-03-17T17:00:48.872Z,22.5
2019-03-17T17:04:17.254Z,16.875
2019-03-17T17:07:45.122Z,11.25
2019-03-17T17:11:12.986Z,5.625
2019-03-17T17:14:40.859Z,0
2019-03-17T17:18:08.722Z,0
2019-03-17T17:21:36.572Z,0
2019-03-17T17:25:05.379Z,0
2019-03-17T17:28:33.975Z,0
2019-03-17T17:32:01.910Z,0
2019-03-17T17:35:38.967Z,0
2019-03-17T17:39:07.839Z,0
2019-03-17T17:42:35.709Z,0
2019-03-17T17:46:03.580Z,0
2019-03-17T17:49:31.464Z,0
2019-03-17T17:52:59.344Z,0
2019-03-17T17:56:27.245Z,0
2019-03-17T17:59:56.168Z,0
2019-03-17T18:03:23.987Z,0
2019-03-17T18:06:51.838Z,0
2019-03-17T18:10:19.751Z,0
2019-03-17T18:13:47.611Z,0
2019-03-17T18:17:15.637Z,0
2019-03-17T18:20:43.522Z,0
2019-03-17T18:24:11.401Z,0
2019-03-17T18:27:39.285Z,0
2019-03-17T18:31:07.170Z,0
2019-03-17T18:34:35.062Z,0
2019-03-17T18:38:02.939Z,0
2019-03-17T18:41:31.638Z,0
2019-03-17T18:45:00.487Z,0
2019-03-17T18:48:28.362Z,0
2019-03-17T18:51:56.282Z,0
2019-03-17T18:55:24.153Z,0
2019-03-17T18:58:52.043Z,0
2019-03-17T19:02:19.906Z,0
2019-03-17T19:05:47.792Z,0
2019-03-17T19:09:15.648Z,0
2019-03-17T19:12:47.497Z,0
2019-03-17T19:16:15.397Z,0
2019-03-17T19:19:43.285Z,0
2019-03-17T19:23:11.185Z,0
2019-03-17T19:26:39.060Z,0
2019-03-17T19:30:06.983Z,0
2019-03-17T19:33:36.363Z,0
2019-03-17T19:37:03.976Z,0
2019-03-17T19:40:32.882Z,0
2019-03-17T19:44:00.773Z,0
2019-03-17T19:47:28.635Z,0
2019-03-17T19:50:57.483Z,0
2019-03-17T19:54:25.380Z,0
2019-03-17T19:57:53.291Z,0
2019-03-17T20:01:21.156Z,0
2019-03-17T20:04:49.052Z,0
2019-03-17T20:08:16.928Z,0
2019-03-17T20:11:44.788Z,0
2019-03-17T20:15:12.684Z,0
2019-03-17T20:18:42.549Z,0
2019-03-17T20:22:10.406Z,0
2019-03-17T20:25:38.327Z,0
2019-03-17T20:29:06.246Z,0
2019-03-17T20:32:34.781Z,0
2019-03-17T20:36:03.621Z,0
2019-03-17T20:39:31.511Z,0
2019-03-17T20:43:00.367Z,0
2019-03-17T20:46:28.232Z,0
2019-03-17T20:49:56.100Z,0
2019-03-17T20:53:24.023Z,0
2019-03-17T20:56:51.874Z,0
2019-03-17T21:00:20.763Z,0
2019-03-17T21:03:49.641Z,0
2019-03-17T21:07:17.494Z,0
2019-03-17T21:10:46.458Z,0
2019-03-17T21:14:15.499Z,0
2019-03-17T21:17:43.347Z,0
2019-03-17T21:21:11.215Z,0
2019-03-17T21:24:39.083Z,0
2019-03-17T21:28:07.007Z,0
2019-03-17T21:31:34.870Z,0
2019-03-17T21:35:02.736Z,0
2019-03-17T21:38:30.581Z,0
2019-03-17T21:41:58.451Z,0
2019-03-17T21:45:28.309Z,0
2019-03-17T21:48:56.159Z,0
2019-03-17T21:52:24.031Z,0
2019-03-17T21:55:54.126Z,0
2019-03-17T21:59:22.741Z,0
2019-03-17T22:02:50.609Z,0
2019-03-17T22:06:21.456Z,0
2019-03-17T22:09:49.316Z,0
2019-03-17T22:13:17.183Z,0
2019-03-17T22:16:45.060Z,0
2019-03-17T22:20:12.965Z,0
2019-03-17T22:23:41.757Z,0
2019-03-17T22:27:09.631Z,0
2019-03-17T22:30:37.498Z,0
2019-03-17T22:34:08.105Z,0
2019-03-17T22:37:34.194Z,0
2019-03-17T22:41:02.071Z,0
2019-03-17T22:44:30.926Z,0
2019-03-17T22:47:58.788Z,0
2019-03-17T22:51:26.644Z,0
2019-03-17T22:54:54.490Z,0
2019-03-17T22:58:23.350Z,0
